createdAt,value
2019-04-29T00:00:48.856Z,102412.88
2019-04-29T00:03:18.717Z,102419.94
2019-04-29T00:05:47.987Z,102425.19
2019-04-29T00:08:17.281Z,102423.53
2019-04-29T00:10:47.035Z,102417.94
2019-04-29T00:13:16.468Z,102417.43
2019-04-29T00:15:59.110Z,102417.75
2019-04-29T00:18:56.163Z,102415.87
2019-04-29T00:21:25.856Z,102412.92
2019-04-29T00:24:03.672Z,102409.53
2019-04-29T00:26:26.057Z,102411.73
2019-04-29T00:28:55.368Z,102404.06
2019-04-29T00:31:24.773Z,102404.30
2019-04-29T00:33:54.133Z,102406.73
2019-04-29T00:36:25.685Z,102408.15
2019-04-29T00:39:20.228Z,102412.05
2019-04-29T00:42:08.428Z,102408.31
2019-04-29T00:44:37.661Z,102406.54
2019-04-29T00:47:06.903Z,102411.62
2019-04-29T00:49:36.219Z,102415.52
2019-04-29T00:52:05.460Z,102415.28
2019-04-29T00:54:39.981Z,102418.27
2019-04-29T00:57:09.265Z,102415.44
2019-04-29T00:59:38.696Z,102414.97
2019-04-29T01:02:08.915Z,102419.41
2019-04-29T01:04:38.530Z,102415.67
2019-04-29T01:07:08.149Z,102414.92
2019-04-29T01:09:37.381Z,102412.48
2019-04-29T01:12:07.343Z,102416.25
2019-04-29T01:14:36.648Z,102416.53
2019-04-29T01:17:05.940Z,102422.78
2019-04-29T01:19:35.310Z,102424.50
2019-04-29T01:22:04.641Z,102424.90
2019-04-29T01:24:33.877Z,102416.48
2019-04-29T01:27:14.647Z,102421.16
2019-04-29T01:29:43.881Z,102423.12
2019-04-29T01:32:13.383Z,102422.48
2019-04-29T01:34:54.198Z,102425.35
2019-04-29T01:37:36.301Z,102418.35
2019-04-29T01:40:15.734Z,102422.91
2019-04-29T01:42:45.155Z,102423.72
2019-04-29T01:45:14.404Z,102430.23
2019-04-29T01:47:43.927Z,102426.76
2019-04-29T01:50:13.205Z,102429.63
2019-04-29T01:52:42.504Z,102430.68
2019-04-29T01:55:11.894Z,102429.52
2019-04-29T01:57:41.603Z,102430.33
2019-04-29T02:00:12.537Z,102430.98
2019-04-29T02:02:44.400Z,102431.91
2019-04-29T02:05:13.651Z,102432.06
2019-04-29T02:07:42.892Z,102433.50
2019-04-29T02:10:31.398Z,102437.78
2019-04-29T02:13:00.644Z,102431.83
2019-04-29T02:15:29.876Z,102433.39
2019-04-29T02:18:00.619Z,102431.06
2019-04-29T02:20:29.842Z,102432.23
2019-04-29T02:23:18.033Z,102432.11
2019-04-29T02:25:48.030Z,102434.19
2019-04-29T02:28:17.278Z,102437.70
2019-04-29T02:30:52.207Z,102427.86
2019-04-29T02:33:21.542Z,102440.83
2019-04-29T02:35:51.078Z,102434.09
2019-04-29T02:38:33.542Z,102426.58
2019-04-29T02:41:25.454Z,102432.42
2019-04-29T02:43:56.404Z,102433.33
2019-04-29T02:46:25.687Z,102430.47
2019-04-29T02:48:54.922Z,102431.50
2019-04-29T02:52:01.336Z,102432.03
2019-04-29T02:54:30.589Z,102430.63
2019-04-29T02:57:08.368Z,102429.08
2019-04-29T02:59:41.684Z,102426.62
2019-04-29T03:02:23.747Z,102429.86
2019-04-29T03:05:10.903Z,102427.14
2019-04-29T03:07:40.150Z,102427.53
2019-04-29T03:10:09.742Z,102429.08
2019-04-29T03:12:39.788Z,102425.59
2019-04-29T03:15:10.433Z,102422.21
2019-04-29T03:17:39.693Z,102420.66
2019-04-29T03:20:24.450Z,102411.86
2019-04-29T03:23:07.482Z,102412.38
2019-04-29T03:25:36.774Z,102416.78
2019-04-29T03:28:06.592Z,102407.59
2019-04-29T03:30:35.839Z,102407.59
2019-04-29T03:33:05.434Z,102407.20
2019-04-29T03:35:34.752Z,102404.09
2019-04-29T03:38:04.254Z,102403.57
2019-04-29T03:40:33.621Z,102403.44
2019-04-29T03:43:02.956Z,102402.13
2019-04-29T03:45:32.275Z,102398.88
2019-04-29T03:48:01.535Z,102396.68
2019-04-29T03:50:31.021Z,102403.93
2019-04-29T03:53:01.636Z,102409.23
2019-04-29T03:55:39.912Z,102395.77
2019-04-29T03:58:01.910Z,102401.59
2019-04-29T04:00:31.141Z,102401.57
2019-04-29T04:03:20.206Z,102401.56
2019-04-29T04:06:13.661Z,102397.66
2019-04-29T04:09:04.407Z,102400.62
2019-04-29T04:11:16.890Z,102398.77
2019-04-29T04:13:46.118Z,102393.69
2019-04-29T04:16:25.621Z,102395.23
2019-04-29T04:19:05.588Z,102399.87
2019-04-29T04:21:34.942Z,102400.91
2019-04-29T04:24:04.759Z,102396.63
2019-04-29T04:26:33.993Z,102397.77
2019-04-29T04:29:03.275Z,102399.95
2019-04-29T04:31:32.500Z,102400.31
2019-04-29T04:34:01.717Z,102401.20
2019-04-29T04:36:31.559Z,102397.67
2019-04-29T04:39:01.219Z,102400.36
2019-04-29T04:41:30.517Z,102396.44
2019-04-29T04:43:59.791Z,102398.61
2019-04-29T04:46:29.016Z,102398.18
2019-04-29T04:48:58.284Z,102397.88
2019-04-29T04:51:27.876Z,102399.65
2019-04-29T04:53:57.098Z,102404.41
2019-04-29T04:56:26.388Z,102408.27
2019-04-29T04:58:55.672Z,102405.24
2019-04-29T05:01:24.892Z,102410.13
2019-04-29T05:03:54.121Z,102407.09
2019-04-29T05:06:23.385Z,102399.77
2019-04-29T05:08:52.621Z,102399.95
2019-04-29T05:11:21.857Z,102405.62
2019-04-29T05:13:51.133Z,102403.37
2019-04-29T05:16:20.370Z,102403.83
2019-04-29T05:18:49.719Z,102403.78
2019-04-29T05:21:19.060Z,102404.75
2019-04-29T05:23:48.298Z,102403.01
2019-04-29T05:26:17.607Z,102403.06
2019-04-29T05:28:46.916Z,102401.52
2019-04-29T05:31:16.219Z,102397.78
2019-04-29T05:33:45.638Z,102398.56
2019-04-29T05:36:38.193Z,102390.42
2019-04-29T05:39:15.226Z,102388.09
2019-04-29T05:41:44.521Z,102385.47
2019-04-29T05:44:29.661Z,102387.42
2019-04-29T05:47:03.279Z,102379.41
2019-04-29T05:49:41.651Z,102374.34
2019-04-29T05:52:34.648Z,102377.27
2019-04-29T05:55:02.992Z,102383.81
2019-04-29T05:57:32.269Z,102379.03
2019-04-29T06:00:01.761Z,102391.59
2019-04-29T06:02:33.249Z,102387.81
2019-04-29T06:05:02.037Z,102394.47
2019-04-29T06:07:31.315Z,102386.48
2019-04-29T06:10:00.607Z,102392.73
2019-04-29T06:12:29.853Z,102387.24
2019-04-29T06:14:59.141Z,102393.08
2019-04-29T06:17:28.404Z,102328.05
2019-04-29T06:19:57.712Z,102391.52
2019-04-29T06:22:27.369Z,102393.44
2019-04-29T06:24:56.611Z,102395.55
2019-04-29T06:27:25.882Z,102396.46
2019-04-29T06:29:58.448Z,102390.05
2019-04-29T06:32:26.474Z,102386.73
2019-04-29T06:34:55.851Z,102391.66
2019-04-29T06:37:25.445Z,102387.84
2019-04-29T06:39:54.811Z,102387.14
2019-04-29T06:42:24.043Z,102387.12
2019-04-29T06:44:53.409Z,102385.45
2019-04-29T06:47:22.924Z,102386.11
2019-04-29T06:49:52.177Z,102378.42
2019-04-29T06:52:21.518Z,102378.50
2019-04-29T06:54:50.779Z,102382.15
2019-04-29T06:57:19.997Z,102380.47
2019-04-29T06:59:49.279Z,102374.34
2019-04-29T07:02:18.518Z,102374.31
2019-04-29T07:04:47.742Z,102365.35
2019-04-29T07:07:17.028Z,102358.02
2019-04-29T07:09:46.320Z,102362.67
2019-04-29T07:12:15.615Z,102370.14
2019-04-29T07:14:44.939Z,102364.58
2019-04-29T07:17:14.212Z,102362.88
2019-04-29T07:19:43.455Z,102360.47
2019-04-29T07:22:12.750Z,102360.39
2019-04-29T07:24:42.097Z,102354.84
2019-04-29T07:27:11.345Z,102348.70
2019-04-29T07:29:40.593Z,102343.48
2019-04-29T07:32:10.656Z,102338.14
2019-04-29T07:34:40.240Z,102335.75
2019-04-29T07:37:09.558Z,102328.43
2019-04-29T07:39:39.073Z,102329.34
2019-04-29T07:42:08.419Z,102321.23
2019-04-29T07:44:56.675Z,102321.83
2019-04-29T07:47:29.468Z,102324.23
2019-04-29T07:49:56.913Z,102321.21
2019-04-29T07:52:26.211Z,102311.92
2019-04-29T07:54:56.283Z,102316.00
2019-04-29T07:57:25.895Z,102305.95
2019-04-29T07:59:55.168Z,102307.40
2019-04-29T08:02:24.433Z,102305.22
2019-04-29T08:04:53.770Z,102306.39
2019-04-29T08:07:23.835Z,102302.78
2019-04-29T08:09:53.477Z,102296.83
2019-04-29T08:12:23.387Z,102297.09
2019-04-29T08:14:58.502Z,102298.48
2019-04-29T08:17:25.052Z,102294.52
2019-04-29T08:19:54.298Z,102295.97
2019-04-29T08:22:27.670Z,102292.53
2019-04-29T08:24:54.667Z,102287.67
2019-04-29T08:27:23.897Z,102286.03
2019-04-29T08:29:53.278Z,102283.02
2019-04-29T08:32:22.547Z,102287.58
2019-04-29T08:34:53.668Z,102291.04
2019-04-29T08:37:24.955Z,102291.94
2019-04-29T08:40:14.839Z,102298.60
2019-04-29T08:42:29.027Z,102290.16
2019-04-29T08:45:14.577Z,102288.09
2019-04-29T08:47:45.538Z,102289.66
2019-04-29T08:50:14.992Z,102287.51
2019-04-29T08:52:44.289Z,102275.59
2019-04-29T08:55:14.730Z,102286.66
2019-04-29T08:57:43.969Z,102280.08
2019-04-29T09:00:13.520Z,102276.55
2019-04-29T09:02:47.291Z,102274.71
2019-04-29T09:05:13.964Z,102275.15
2019-04-29T09:07:43.218Z,102277.00
2019-04-29T09:10:12.861Z,102277.46
2019-04-29T09:12:42.125Z,102276.61
2019-04-29T09:15:12.461Z,102265.93
2019-04-29T09:17:41.760Z,102255.26
2019-04-29T09:20:11.395Z,102251.69
2019-04-29T09:22:47.645Z,102250.80
2019-04-29T09:25:39.187Z,102257.36
2019-04-29T09:28:14.944Z,102248.91
2019-04-29T09:30:41.848Z,102242.20
2019-04-29T09:33:13.113Z,102237.78
2019-04-29T09:35:42.108Z,102229.19
2019-04-29T09:38:11.346Z,102237.89
2019-04-29T09:40:46.194Z,102236.63
2019-04-29T09:43:25.998Z,102235.82
2019-04-29T09:46:01.532Z,102240.03
2019-04-29T09:48:30.789Z,102242.73
2019-04-29T09:51:00.409Z,102248.44
2019-04-29T09:53:29.709Z,102238.06
2019-04-29T09:55:58.844Z,102242.69
2019-04-29T09:58:28.116Z,102234.72
2019-04-29T10:01:19.045Z,102226.29
2019-04-29T10:04:19.943Z,102225.39
2019-04-29T10:06:51.707Z,102220.00
2019-04-29T10:09:21.440Z,102224.72
2019-04-29T10:11:50.681Z,102215.73
2019-04-29T10:14:19.991Z,102208.88
2019-04-29T10:17:15.451Z,102213.88
2019-04-29T10:20:04.413Z,102216.19
2019-04-29T10:22:34.664Z,102205.31
2019-04-29T10:25:05.747Z,102195.59
2019-04-29T10:27:35.134Z,102189.52
2019-04-29T10:30:05.366Z,102191.02
2019-04-29T10:32:37.793Z,102189.45
2019-04-29T10:35:08.721Z,102188.50
2019-04-29T10:37:37.035Z,102195.41
2019-04-29T10:40:41.033Z,102190.44
2019-04-29T10:43:17.154Z,102183.23
2019-04-29T10:46:24.086Z,102173.26
2019-04-29T10:49:03.569Z,102169.31
2019-04-29T10:51:33.009Z,102175.25
2019-04-29T10:54:02.252Z,102170.00
2019-04-29T10:56:31.484Z,102161.98
2019-04-29T10:59:04.621Z,102160.70
2019-04-29T11:02:24.078Z,102160.98
2019-04-29T11:04:55.223Z,102158.38
2019-04-29T11:07:37.379Z,102155.20
2019-04-29T11:10:24.865Z,102147.31
2019-04-29T11:12:49.089Z,102141.79
2019-04-29T11:15:19.999Z,102132.86
2019-04-29T11:17:58.418Z,102118.55
2019-04-29T11:20:21.603Z,102117.50
2019-04-29T11:22:57.724Z,102119.93
2019-04-29T11:25:52.043Z,102117.36
2019-04-29T11:28:22.125Z,102117.89
2019-04-29T11:30:52.494Z,102123.29
2019-04-29T11:33:28.187Z,102134.36
2019-04-29T11:36:06.647Z,102138.19
2019-04-29T11:38:38.290Z,102137.41
2019-04-29T11:41:07.302Z,102141.46
2019-04-29T11:43:37.632Z,102137.52
2019-04-29T11:46:09.884Z,102133.52
2019-04-29T11:48:38.094Z,102123.77
2019-04-29T11:52:07.926Z,102109.07
2019-04-29T11:54:18.214Z,102098.34
2019-04-29T11:56:47.973Z,102089.41
2019-04-29T11:59:33.103Z,102094.28
2019-04-29T12:02:24.818Z,102100.58
2019-04-29T12:04:56.658Z,102111.70
2019-04-29T12:07:31.697Z,102127.77
2019-04-29T12:09:57.777Z,102133.96
2019-04-29T12:12:27.057Z,102132.36
2019-04-29T12:15:13.663Z,102125.83
2019-04-29T12:17:44.470Z,102105.05
2019-04-29T12:20:21.269Z,102098.34
2019-04-29T12:22:50.542Z,102095.07
2019-04-29T12:25:23.052Z,102084.77
2019-04-29T12:27:52.832Z,102077.63
2019-04-29T12:30:23.889Z,102070.47
2019-04-29T12:33:05.171Z,102061.28
2019-04-29T12:35:51.026Z,102062.50
2019-04-29T12:38:39.980Z,102068.88
2019-04-29T12:41:30.271Z,102079.12
2019-04-29T12:44:03.743Z,102077.02
2019-04-29T12:46:39.859Z,102073.38
2019-04-29T12:49:13.561Z,102082.36
2019-04-29T12:51:51.383Z,102075.92
2019-04-29T12:54:20.641Z,102064.37
2019-04-29T12:56:49.895Z,102040.88
2019-04-29T12:59:21.405Z,102044.77
2019-04-29T13:02:07.469Z,102042.30
2019-04-29T13:04:54.767Z,102034.77
2019-04-29T13:07:32.733Z,102035.93
2019-04-29T13:10:08.624Z,102042.08
2019-04-29T13:12:39.903Z,102038.59
2019-04-29T13:15:23.838Z,102026.70
2019-04-29T13:18:03.480Z,102023.78
2019-04-29T13:20:31.335Z,102023.25
2019-04-29T13:23:17.142Z,102020.03
2019-04-29T13:25:31.546Z,102022.24
2019-04-29T13:28:04.024Z,102022.96
2019-04-29T13:30:32.156Z,102023.72
2019-04-29T13:33:06.357Z,102021.98
2019-04-29T13:35:32.609Z,102014.88
2019-04-29T13:38:01.851Z,102010.44
2019-04-29T13:40:33.020Z,102012.30
2019-04-29T13:43:02.130Z,102006.44
2019-04-29T13:45:38.983Z,102010.95
2019-04-29T13:48:55.143Z,102009.98
2019-04-29T13:51:34.467Z,102002.48
2019-04-29T13:53:50.688Z,101998.17
2019-04-29T13:56:39.376Z,101992.27
2019-04-29T13:58:51.011Z,101991.53
2019-04-29T14:01:39.720Z,101990.59
2019-04-29T14:04:26.202Z,101992.33
2019-04-29T14:06:57.684Z,101986.84
2019-04-29T14:09:26.506Z,101986.71
2019-04-29T14:12:02.888Z,101990.61
2019-04-29T14:14:28.253Z,101987.73
2019-04-29T14:17:17.215Z,101988.79
2019-04-29T14:19:44.273Z,101993.59
2019-04-29T14:22:00.240Z,101994.23
2019-04-29T14:24:29.489Z,102001.88
2019-04-29T14:26:58.748Z,101997.04
2019-04-29T14:29:30.167Z,101998.04
2019-04-29T14:32:01.266Z,101991.84
2019-04-29T14:34:36.862Z,101983.48
2019-04-29T14:37:24.978Z,101983.37
2019-04-29T14:39:37.832Z,101989.57
2019-04-29T14:42:25.658Z,101982.94
2019-04-29T14:45:01.756Z,101991.76
2019-04-29T14:47:43.187Z,101981.32
2019-04-29T14:50:15.686Z,101980.73
2019-04-29T14:52:44.730Z,101980.18
2019-04-29T14:55:15.161Z,101976.98
2019-04-29T14:57:44.561Z,101980.77
2019-04-29T15:00:35.050Z,101980.48
2019-04-29T15:03:04.408Z,101982.78
2019-04-29T15:05:33.676Z,101983.09
2019-04-29T15:08:03.210Z,101975.22
2019-04-29T15:10:33.151Z,101977.73
2019-04-29T15:13:20.697Z,101976.27
2019-04-29T15:16:09.662Z,101982.69
2019-04-29T15:18:55.413Z,101976.98
2019-04-29T15:21:32.846Z,101973.52
2019-04-29T15:24:01.879Z,101970.92
2019-04-29T15:26:31.129Z,101975.61
2019-04-29T15:29:00.387Z,101969.78
2019-04-29T15:31:29.710Z,101977.41
2019-04-29T15:33:58.995Z,101978.05
2019-04-29T15:36:30.779Z,101974.78
2019-04-29T15:39:09.427Z,101975.81
2019-04-29T15:41:32.918Z,101970.80
2019-04-29T15:44:07.752Z,101969.44
2019-04-29T15:46:45.689Z,101981.18
2019-04-29T15:49:03.435Z,101977.52
2019-04-29T15:51:32.686Z,101977.42
2019-04-29T15:54:01.945Z,101989.39
2019-04-29T15:56:33.751Z,101982.89
2019-04-29T15:59:08.006Z,101984.09
2019-04-29T16:01:33.287Z,101980.79
2019-04-29T16:04:05.253Z,101968.21
2019-04-29T16:06:57.696Z,101977.76
2019-04-29T16:09:51.328Z,101978.98
2019-04-29T16:12:15.477Z,101974.36
2019-04-29T16:14:42.632Z,101977.95
2019-04-29T16:17:11.933Z,101979.28
2019-04-29T16:19:41.180Z,101982.19
2019-04-29T16:22:12.881Z,101981.54
2019-04-29T16:24:41.387Z,101976.00
2019-04-29T16:27:10.678Z,101980.70
2019-04-29T16:29:39.929Z,101985.27
2019-04-29T16:32:11.430Z,101980.48
2019-04-29T16:37:18.564Z,101987.88
2019-04-29T16:39:42.728Z,101977.05
2019-04-29T16:42:22.157Z,101982.91
2019-04-29T16:44:51.424Z,101988.34
2019-04-29T16:47:21.981Z,101991.09
2019-04-29T16:49:51.330Z,101987.06
2019-04-29T16:52:20.989Z,101986.17
2019-04-29T16:54:50.245Z,101994.17
2019-04-29T16:57:19.703Z,101992.81
2019-04-29T16:59:48.970Z,101990.46
2019-04-29T17:02:19.632Z,101992.08
2019-04-29T17:04:49.091Z,101996.95
2019-04-29T17:07:18.341Z,101997.80
2019-04-29T17:10:19.369Z,102004.34
2019-04-29T17:12:50.461Z,102002.88
2019-04-29T17:15:25.092Z,102000.76
2019-04-29T17:17:50.701Z,101999.95
2019-04-29T17:20:20.158Z,102007.78
2019-04-29T17:22:49.431Z,102006.00
2019-04-29T17:25:18.796Z,102003.65
2019-04-29T17:28:02.072Z,102005.75
2019-04-29T17:30:57.125Z,102001.85
2019-04-29T17:33:50.325Z,102004.77
2019-04-29T17:35:15.775Z,101984.42
2019-04-29T17:36:23.815Z,102006.48
2019-04-29T17:38:51.482Z,102013.39
2019-04-29T17:41:20.795Z,102009.14
2019-04-29T17:44:18.780Z,102010.11
2019-04-29T17:47:11.663Z,102019.25
2019-04-29T17:49:44.891Z,102026.61
2019-04-29T17:52:22.447Z,102027.94
2019-04-29T17:54:55.035Z,102029.34
2019-04-29T17:57:34.061Z,102031.39
2019-04-29T18:00:21.418Z,102031.86
2019-04-29T18:03:09.271Z,102037.91
2019-04-29T18:05:57.808Z,102042.98
2019-04-29T18:08:52.112Z,102039.20
2019-04-29T18:11:21.485Z,102046.64
2019-04-29T18:13:52.578Z,102039.70
2019-04-29T18:16:28.262Z,102040.97
2019-04-29T18:19:02.865Z,102042.77
2019-04-29T18:21:57.085Z,102046.71
2019-04-29T18:25:00.570Z,102048.50
2019-04-29T18:27:34.372Z,102052.01
2019-04-29T18:30:03.557Z,102053.07
2019-04-29T18:32:37.872Z,102049.72
2019-04-29T18:35:06.269Z,102052.95
2019-04-29T18:37:38.415Z,102052.44
2019-04-29T18:40:08.288Z,102064.14
2019-04-29T18:42:38.382Z,102061.81
2019-04-29T18:45:09.531Z,102067.84
2019-04-29T18:47:40.011Z,101939.66
2019-04-29T18:50:09.495Z,102060.94
2019-04-29T18:52:40.417Z,102065.77
2019-04-29T18:55:09.726Z,102062.23
2019-04-29T18:57:38.961Z,102063.61
2019-04-29T19:00:12.704Z,102058.70
2019-04-29T19:02:46.044Z,102053.50
2019-04-29T19:05:26.314Z,102060.19
2019-04-29T19:08:01.453Z,102058.73
2019-04-29T19:10:32.892Z,102057.61
2019-04-29T19:13:00.029Z,102061.59
2019-04-29T19:15:27.476Z,102067.03
2019-04-29T19:17:59.747Z,102066.09
2019-04-29T19:20:28.089Z,102067.11
2019-04-29T19:23:05.865Z,102074.15
2019-04-29T19:25:28.408Z,102076.95
2019-04-29T19:27:57.653Z,102075.84
2019-04-29T19:30:29.233Z,102074.78
2019-04-29T19:33:00.512Z,102075.84
2019-04-29T19:35:29.407Z,102081.90
2019-04-29T19:38:01.172Z,102075.42
2019-04-29T19:40:40.504Z,102077.48
2019-04-29T19:43:01.385Z,102076.84
2019-04-29T19:45:30.738Z,102070.89
2019-04-29T19:48:00.021Z,102071.63
2019-04-29T19:50:29.276Z,102071.89
2019-04-29T19:53:00.616Z,102068.70
2019-04-29T19:55:33.202Z,102064.52
2019-04-29T19:58:01.572Z,102059.38
2019-04-29T20:00:32.744Z,102058.20
2019-04-29T20:03:17.437Z,102055.60
2019-04-29T20:05:46.461Z,102053.73
2019-04-29T20:08:31.685Z,102051.03
2019-04-29T20:10:51.045Z,102055.34
2019-04-29T20:13:18.915Z,102054.53
2019-04-29T20:16:10.082Z,102062.38
2019-04-29T20:21:24.478Z,102061.64
2019-04-29T20:21:28.766Z,102064.19
2019-04-29T20:23:46.553Z,102064.41
2019-04-29T20:26:23.389Z,102071.31
2019-04-29T20:28:51.103Z,102078.38
2019-04-29T20:31:22.078Z,102073.39
2019-04-29T20:33:49.357Z,102068.89
2019-04-29T20:36:37.369Z,102053.77
2019-04-29T20:38:50.174Z,102056.47
2019-04-29T20:41:30.360Z,102052.30
2019-04-29T20:43:50.785Z,102057.55
2019-04-29T20:46:20.155Z,102050.67
2019-04-29T20:48:50.465Z,102050.28
2019-04-29T20:51:23.257Z,102045.62
2019-04-29T20:53:57.475Z,102053.96
2019-04-29T20:56:29.750Z,102062.06
2019-04-29T20:59:01.703Z,102066.23
2019-04-29T21:01:38.649Z,102064.92
2019-04-29T21:04:05.835Z,102063.53
2019-04-29T21:06:39.245Z,102064.67
2019-04-29T21:09:08.166Z,102059.11
2019-04-29T21:11:51.635Z,102053.48
2019-04-29T21:14:27.117Z,102054.86
2019-04-29T21:16:57.524Z,102063.11
2019-04-29T21:19:27.135Z,102061.14
2019-04-29T21:21:56.492Z,102059.19
2019-04-29T21:24:25.815Z,102066.38
2019-04-29T21:26:57.422Z,102064.56
2019-04-29T21:29:28.344Z,102066.36
2019-04-29T21:32:01.483Z,102064.70
2019-04-29T21:34:38.621Z,102073.37
2019-04-29T21:37:18.281Z,102069.11
2019-04-29T21:40:13.910Z,102070.06
2019-04-29T21:42:59.420Z,102068.18
2019-04-29T21:45:28.832Z,102069.14
2019-04-29T21:47:58.104Z,102065.16
2019-04-29T21:50:33.886Z,102070.19
2019-04-29T21:53:01.973Z,102066.45
2019-04-29T21:55:29.629Z,102064.33
2019-04-29T21:58:00.157Z,102063.52
2019-04-29T22:00:29.880Z,102063.34
2019-04-29T22:02:59.172Z,102065.78
2019-04-29T22:05:28.395Z,102060.26
2019-04-29T22:07:57.886Z,102057.70
2019-04-29T22:10:29.101Z,102062.67
2019-04-29T22:13:02.060Z,102063.89
2019-04-29T22:15:33.207Z,102060.70
2019-04-29T22:18:07.317Z,102067.51
2019-04-29T22:20:41.968Z,102065.98
2019-04-29T22:23:13.422Z,102062.12
2019-04-29T22:25:41.059Z,102068.69
2019-04-29T22:28:10.673Z,102072.06
2019-04-29T22:30:39.392Z,102072.47
2019-04-29T22:33:08.957Z,102069.86
2019-04-29T22:35:40.796Z,102069.86
2019-04-29T22:38:12.693Z,102074.98
2019-04-29T22:40:42.807Z,102070.17
2019-04-29T22:43:20.177Z,101947.04
2019-04-29T22:45:49.426Z,102058.95
2019-04-29T22:48:19.859Z,102057.74
2019-04-29T22:50:49.274Z,102049.95
2019-04-29T22:53:18.516Z,102048.97
2019-04-29T22:55:48.070Z,102044.55
2019-04-29T22:58:17.336Z,102049.77
2019-04-29T23:00:46.830Z,102048.42
2019-04-29T23:03:16.079Z,102048.61
2019-04-29T23:05:46.143Z,102049.02
2019-04-29T23:08:15.462Z,102049.02
2019-04-29T23:10:45.623Z,102047.52
2019-04-29T23:13:14.969Z,102047.89
2019-04-29T23:15:45.549Z,102044.23
2019-04-29T23:18:24.291Z,102046.94
2019-04-29T23:21:16.862Z,102040.88
2019-04-29T23:23:49.363Z,102036.95
2019-04-29T23:26:18.605Z,102035.64
2019-04-29T23:28:47.905Z,102023.17
2019-04-29T23:31:17.154Z,102017.82
2019-04-29T23:33:46.385Z,102013.86
2019-04-29T23:36:15.979Z,102014.92
2019-04-29T23:38:45.384Z,102015.92
2019-04-29T23:44:56.985Z,102019.41
2019-04-29T23:47:26.093Z,102027.20
2019-04-29T23:49:55.266Z,102028.34
2019-04-29T23:52:24.438Z,102028.38
2019-04-29T23:54:53.659Z,102029.91
2019-04-29T23:57:36.992Z,102015.08
